KRMG/RMG METAR and TAF weather

Enter ICAO airport designator
Station Type Date Time Source
KRMG METAR 2019/12/09 13:53 UTC NOAA

KRMG 091353Z AUTO 13006KT 10SM OVC020 11/03 A3004 RMK AO2 SLP169 T01060033


Station Type Date Time Source
KRMG Decoded METAR 2019/12/09 13:53 UTC NOAA

ROME R. B. RUSSELL AIRPORT, GA, United States (KRMG) 34-21N 085-10W 193M
Dec 09, 2019 - 08:53 AM EST / 2019.12.09 1353 UTC
Wind: from the SE (130 degrees) at 7 MPH (6 KT):0
Visibility: 10 mile(s):0
Sky conditions: overcast
Temperature: 51.1 F (10.6 C)
Dew Point: 37.9 F (3.3 C)
Relative Humidity: 60%
Pressure (altimeter): 30.04 in. Hg (1017 hPa)
ob: KRMG 091353Z AUTO 13006KT 10SM OVC020 11/03 A3004 RMK AO2 SLP169 T01060033
cycle: 14

Station Type Date Time Source
KRMG TAF UTC NOAA

Error!

Example: see airport list